sensor_id;sensor_type;location;lat;lon;timestamp;temperature;humidity
20650;DHT22;10484;48.736;9.332;2023-05-07T00:00:35;15.00;1.00
20650;DHT22;10484;48.736;9.332;2023-05-07T00:03:01;15.00;1.00
20650;DHT22;10484;48.736;9.332;2023-05-07T00:05:27;15.00;1.00
20650;DHT22;10484;48.736;9.332;2023-05-07T00:07:52;15.00;1.00
20650;DHT22;10484;48.736;9.332;2023-05-07T00:10:18;14.90;1.00
20650;DHT22;10484;48.736;9.332;2023-05-07T00:12:44;14.90;1.00
20650;DHT22;10484;48.736;9.332;2023-05-07T00:15:10;14.90;1.00
20650;DHT22;10484;48.736;9.332;2023-05-07T00:17:36;14.80;1.00
20650;DHT22;10484;48.736;9.332;2023-05-07T00:20:03;14.80;1.00
20650;DHT22;10484;48.736;9.332;2023-05-07T00:22:29;14.80;1.00
20650;DHT22;10484;48.736;9.332;2023-05-07T00:24:55;14.80;1.00
20650;DHT22;10484;48.736;9.332;2023-05-07T00:27:22;14.70;1.00
20650;DHT22;10484;48.736;9.332;2023-05-07T00:29:47;14.70;1.00
20650;DHT22;10484;48.736;9.332;2023-05-07T00:32:13;14.70;1.00
20650;DHT22;10484;48.736;9.332;2023-05-07T00:34:39;14.70;1.00
20650;DHT22;10484;48.736;9.332;2023-05-07T00:37:05;14.70;1.00
20650;DHT22;10484;48.736;9.332;2023-05-07T00:39:33;14.60;1.00
20650;DHT22;10484;48.736;9.332;2023-05-07T00:41:58;14.60;1.00
20650;DHT22;10484;48.736;9.332;2023-05-07T00:44:24;14.60;1.00
20650;DHT22;10484;48.736;9.332;2023-05-07T00:46:50;14.60;1.00
20650;DHT22;10484;48.736;9.332;2023-05-07T00:49:16;14.50;1.00
20650;DHT22;10484;48.736;9.332;2023-05-07T00:51:42;14.50;1.00
20650;DHT22;10484;48.736;9.332;2023-05-07T00:54:08;14.50;1.00
20650;DHT22;10484;48.736;9.332;2023-05-07T00:56:34;14.40;1.00
20650;DHT22;10484;48.736;9.332;2023-05-07T00:59:01;14.40;1.00
20650;DHT22;10484;48.736;9.332;2023-05-07T01:01:28;14.40;1.00
20650;DHT22;10484;48.736;9.332;2023-05-07T01:03:53;14.40;1.00
20650;DHT22;10484;48.736;9.332;2023-05-07T01:06:20;14.40;1.00
20650;DHT22;10484;48.736;9.332;2023-05-07T01:08:47;14.30;1.00
20650;DHT22;10484;48.736;9.332;2023-05-07T01:11:16;14.30;1.00
20650;DHT22;10484;48.736;9.332;2023-05-07T01:13:42;14.30;1.00
20650;DHT22;10484;48.736;9.332;2023-05-07T01:16:09;14.30;1.00
20650;DHT22;10484;48.736;9.332;2023-05-07T01:18:35;14.20;1.00
20650;DHT22;10484;48.736;9.332;2023-05-07T01:21:02;14.20;1.00
20650;DHT22;10484;48.736;9.332;2023-05-07T01:23:29;14.20;1.00
20650;DHT22;10484;48.736;9.332;2023-05-07T01:25:56;14.10;1.00
20650;DHT22;10484;48.736;9.332;2023-05-07T01:28:21;14.10;1.00
20650;DHT22;10484;48.736;9.332;2023-05-07T01:30:51;14.10;1.00
20650;DHT22;10484;48.736;9.332;2023-05-07T01:33:20;14.10;1.00
20650;DHT22;10484;48.736;9.332;2023-05-07T01:35:49;14.10;1.00
20650;DHT22;10484;48.736;9.332;2023-05-07T01:38:16;14.00;1.00
20650;DHT22;10484;48.736;9.332;2023-05-07T01:40:42;14.00;1.00
20650;DHT22;10484;48.736;9.332;2023-05-07T01:43:08;14.00;1.00
20650;DHT22;10484;48.736;9.332;2023-05-07T01:45:35;14.00;1.00
20650;DHT22;10484;48.736;9.332;2023-05-07T01:48:02;14.00;1.00
20650;DHT22;10484;48.736;9.332;2023-05-07T01:50:29;13.90;1.00
20650;DHT22;10484;48.736;9.332;2023-05-07T01:52:55;13.90;1.00
20650;DHT22;10484;48.736;9.332;2023-05-07T01:55:21;13.90;1.00
20650;DHT22;10484;48.736;9.332;2023-05-07T01:57:47;13.90;1.00
20650;DHT22;10484;48.736;9.332;2023-05-07T02:00:12;13.90;1.00
20650;DHT22;10484;48.736;9.332;2023-05-07T02:02:38;13.80;1.00
20650;DHT22;10484;48.736;9.332;2023-05-07T02:05:04;13.80;1.00
20650;DHT22;10484;48.736;9.332;2023-05-07T02:07:30;13.80;1.00
20650;DHT22;10484;48.736;9.332;2023-05-07T02:09:55;13.80;1.00
20650;DHT22;10484;48.736;9.332;2023-05-07T02:12:22;13.70;1.00
20650;DHT22;10484;48.736;9.332;2023-05-07T02:14:48;13.70;1.00
20650;DHT22;10484;48.736;9.332;2023-05-07T02:17:13;13.70;1.00
20650;DHT22;10484;48.736;9.332;2023-05-07T02:19:39;13.70;1.00
20650;DHT22;10484;48.736;9.332;2023-05-07T02:22:04;13.70;1.00
20650;DHT22;10484;48.736;9.332;2023-05-07T02:24:30;13.70;1.00
20650;DHT22;10484;48.736;9.332;2023-05-07T02:26:56;13.60;1.00
20650;DHT22;10484;48.736;9.332;2023-05-07T02:29:21;13.60;1.00
20650;DHT22;10484;48.736;9.332;2023-05-07T02:31:47;13.60;1.00
20650;DHT22;10484;48.736;9.332;2023-05-07T02:34:16;13.60;1.00
20650;DHT22;10484;48.736;9.332;2023-05-07T02:36:42;13.50;1.00
20650;DHT22;10484;48.736;9.332;2023-05-07T02:39:08;13.50;1.00
20650;DHT22;10484;48.736;9.332;2023-05-07T02:41:33;13.50;1.00
20650;DHT22;10484;48.736;9.332;2023-05-07T02:43:59;13.50;1.00
20650;DHT22;10484;48.736;9.332;2023-05-07T02:46:25;13.50;1.00
20650;DHT22;10484;48.736;9.332;2023-05-07T02:48:50;13.50;1.00
20650;DHT22;10484;48.736;9.332;2023-05-07T02:51:20;13.40;1.00
20650;DHT22;10484;48.736;9.332;2023-05-07T02:53:46;13.40;1.00
20650;DHT22;10484;48.736;9.332;2023-05-07T02:56:11;13.40;1.00
20650;DHT22;10484;48.736;9.332;2023-05-07T02:58:37;13.40;1.00
20650;DHT22;10484;48.736;9.332;2023-05-07T03:01:05;13.30;1.00
20650;DHT22;10484;48.736;9.332;2023-05-07T03:03:31;13.30;1.00
20650;DHT22;10484;48.736;9.332;2023-05-07T03:05:56;13.20;1.00
20650;DHT22;10484;48.736;9.332;2023-05-07T03:08:22;13.20;1.00
20650;DHT22;10484;48.736;9.332;2023-05-07T03:10:48;13.20;1.00
20650;DHT22;10484;48.736;9.332;2023-05-07T03:13:13;13.20;1.00
20650;DHT22;10484;48.736;9.332;2023-05-07T03:15:40;13.10;1.00
20650;DHT22;10484;48.736;9.332;2023-05-07T03:18:05;13.10;1.00
20650;DHT22;10484;48.736;9.332;2023-05-07T03:20:31;13.10;1.00
20650;DHT22;10484;48.736;9.332;2023-05-07T03:22:56;13.10;1.00
20650;DHT22;10484;48.736;9.332;2023-05-07T03:25:22;13.00;1.00
20650;DHT22;10484;48.736;9.332;2023-05-07T03:27:48;13.00;1.00
20650;DHT22;10484;48.736;9.332;2023-05-07T03:30:14;13.00;1.00
20650;DHT22;10484;48.736;9.332;2023-05-07T03:32:39;13.00;1.00
20650;DHT22;10484;48.736;9.332;2023-05-07T03:35:05;12.90;1.00
20650;DHT22;10484;48.736;9.332;2023-05-07T03:37:31;12.90;1.00
20650;DHT22;10484;48.736;9.332;2023-05-07T03:39:57;12.80;1.00
20650;DHT22;10484;48.736;9.332;2023-05-07T03:42:22;12.80;1.00
20650;DHT22;10484;48.736;9.332;2023-05-07T03:44:48;12.80;1.00
20650;DHT22;10484;48.736;9.332;2023-05-07T03:47:14;12.80;1.00
20650;DHT22;10484;48.736;9.332;2023-05-07T03:49:39;12.80;1.00
20650;DHT22;10484;48.736;9.332;2023-05-07T03:52:05;12.70;1.00
20650;DHT22;10484;48.736;9.332;2023-05-07T03:54:31;12.70;1.00
20650;DHT22;10484;48.736;9.332;2023-05-07T03:56:57;12.70;1.00
20650;DHT22;10484;48.736;9.332;2023-05-07T03:59:22;12.70;1.00
20650;DHT22;10484;48.736;9.332;2023-05-07T04:01:48;12.70;1.00
20650;DHT22;10484;48.736;9.332;2023-05-07T04:04:14;12.70;1.00
20650;DHT22;10484;48.736;9.332;2023-05-07T04:06:40;12.60;1.00
20650;DHT22;10484;48.736;9.332;2023-05-07T04:09:06;12.60;1.00
20650;DHT22;10484;48.736;9.332;2023-05-07T04:11:32;12.60;1.00
20650;DHT22;10484;48.736;9.332;2023-05-07T04:13:57;12.60;1.00
20650;DHT22;10484;48.736;9.332;2023-05-07T04:16:23;12.60;1.00
20650;DHT22;10484;48.736;9.332;2023-05-07T04:18:48;12.60;1.00
20650;DHT22;10484;48.736;9.332;2023-05-07T04:21:15;12.50;1.00
20650;DHT22;10484;48.736;9.332;2023-05-07T04:23:41;12.50;1.00
20650;DHT22;10484;48.736;9.332;2023-05-07T04:26:06;12.50;1.00
20650;DHT22;10484;48.736;9.332;2023-05-07T04:28:32;12.50;1.00
20650;DHT22;10484;48.736;9.332;2023-05-07T04:30:58;12.50;1.00
20650;DHT22;10484;48.736;9.332;2023-05-07T04:33:23;12.50;1.00
20650;DHT22;10484;48.736;9.332;2023-05-07T04:35:49;12.40;1.00
20650;DHT22;10484;48.736;9.332;2023-05-07T04:38:15;12.40;1.00
20650;DHT22;10484;48.736;9.332;2023-05-07T04:40:40;12.40;1.00
20650;DHT22;10484;48.736;9.332;2023-05-07T04:43:06;12.40;1.00
20650;DHT22;10484;48.736;9.332;2023-05-07T04:45:34;12.40;1.00
20650;DHT22;10484;48.736;9.332;2023-05-07T04:48:00;12.40;1.00
20650;DHT22;10484;48.736;9.332;2023-05-07T04:50:26;12.40;1.00
20650;DHT22;10484;48.736;9.332;2023-05-07T04:52:51;12.40;1.00
20650;DHT22;10484;48.736;9.332;2023-05-07T04:55:17;12.40;1.00
20650;DHT22;10484;48.736;9.332;2023-05-07T04:57:43;12.40;1.00
20650;DHT22;10484;48.736;9.332;2023-05-07T05:00:09;12.40;1.00
20650;DHT22;10484;48.736;9.332;2023-05-07T05:02:35;12.40;1.00
20650;DHT22;10484;48.736;9.332;2023-05-07T05:05:01;12.30;1.00
20650;DHT22;10484;48.736;9.332;2023-05-07T05:07:28;12.40;1.00
20650;DHT22;10484;48.736;9.332;2023-05-07T05:09:54;12.40;1.00
20650;DHT22;10484;48.736;9.332;2023-05-07T05:12:20;12.30;1.00
20650;DHT22;10484;48.736;9.332;2023-05-07T05:14:45;12.30;1.00
20650;DHT22;10484;48.736;9.332;2023-05-07T05:17:11;12.30;1.00
20650;DHT22;10484;48.736;9.332;2023-05-07T05:19:36;12.30;1.00
20650;DHT22;10484;48.736;9.332;2023-05-07T05:22:02;12.40;1.00
20650;DHT22;10484;48.736;9.332;2023-05-07T05:24:29;12.40;1.00
20650;DHT22;10484;48.736;9.332;2023-05-07T05:26:55;12.30;1.00
20650;DHT22;10484;48.736;9.332;2023-05-07T05:29:21;12.30;1.00
20650;DHT22;10484;48.736;9.332;2023-05-07T05:31:46;12.40;1.00
20650;DHT22;10484;48.736;9.332;2023-05-07T05:34:12;12.40;1.00
20650;DHT22;10484;48.736;9.332;2023-05-07T05:36:38;12.40;1.00
20650;DHT22;10484;48.736;9.332;2023-05-07T05:39:04;12.40;1.00
20650;DHT22;10484;48.736;9.332;2023-05-07T05:41:30;12.40;1.00
20650;DHT22;10484;48.736;9.332;2023-05-07T05:43:55;12.40;1.00
20650;DHT22;10484;48.736;9.332;2023-05-07T05:46:21;12.50;1.00
20650;DHT22;10484;48.736;9.332;2023-05-07T05:48:46;12.60;1.00
20650;DHT22;10484;48.736;9.332;2023-05-07T05:51:12;12.60;1.00
20650;DHT22;10484;48.736;9.332;2023-05-07T05:53:38;12.60;1.00
20650;DHT22;10484;48.736;9.332;2023-05-07T05:56:04;12.70;1.00
20650;DHT22;10484;48.736;9.332;2023-05-07T05:58:30;12.70;1.00
20650;DHT22;10484;48.736;9.332;2023-05-07T06:00:55;12.80;1.00
20650;DHT22;10484;48.736;9.332;2023-05-07T06:03:21;12.80;1.00
20650;DHT22;10484;48.736;9.332;2023-05-07T06:05:47;12.80;1.00
20650;DHT22;10484;48.736;9.332;2023-05-07T06:08:13;12.90;1.00
20650;DHT22;10484;48.736;9.332;2023-05-07T06:10:38;12.90;1.00
20650;DHT22;10484;48.736;9.332;2023-05-07T06:13:04;12.90;1.00
20650;DHT22;10484;48.736;9.332;2023-05-07T06:15:30;12.90;1.00
20650;DHT22;10484;48.736;9.332;2023-05-07T06:17:56;12.90;1.00
20650;DHT22;10484;48.736;9.332;2023-05-07T06:20:23;13.00;1.00
20650;DHT22;10484;48.736;9.332;2023-05-07T06:22:48;13.00;1.00
20650;DHT22;10484;48.736;9.332;2023-05-07T06:25:14;13.00;1.00
20650;DHT22;10484;48.736;9.332;2023-05-07T06:27:40;13.10;1.00
20650;DHT22;10484;48.736;9.332;2023-05-07T06:30:06;13.10;1.00
20650;DHT22;10484;48.736;9.332;2023-05-07T06:32:32;13.20;1.00
20650;DHT22;10484;48.736;9.332;2023-05-07T06:34:58;13.20;1.00
20650;DHT22;10484;48.736;9.332;2023-05-07T06:37:23;13.20;1.00
20650;DHT22;10484;48.736;9.332;2023-05-07T06:39:49;13.30;1.00
20650;DHT22;10484;48.736;9.332;2023-05-07T06:42:15;13.30;1.00
20650;DHT22;10484;48.736;9.332;2023-05-07T06:44:40;13.40;1.00
20650;DHT22;10484;48.736;9.332;2023-05-07T06:47:06;13.40;1.00
20650;DHT22;10484;48.736;9.332;2023-05-07T06:49:32;13.50;1.00
20650;DHT22;10484;48.736;9.332;2023-05-07T06:51:57;13.50;1.00
20650;DHT22;10484;48.736;9.332;2023-05-07T06:54:24;13.60;1.00
20650;DHT22;10484;48.736;9.332;2023-05-07T06:56:49;13.60;1.00
20650;DHT22;10484;48.736;9.332;2023-05-07T06:59:15;13.60;1.00
20650;DHT22;10484;48.736;9.332;2023-05-07T07:01:41;13.70;1.00
20650;DHT22;10484;48.736;9.332;2023-05-07T07:04:07;13.70;1.00
20650;DHT22;10484;48.736;9.332;2023-05-07T07:06:32;13.80;1.00
20650;DHT22;10484;48.736;9.332;2023-05-07T07:08:59;13.80;1.00
20650;DHT22;10484;48.736;9.332;2023-05-07T07:11:25;13.90;1.00
20650;DHT22;10484;48.736;9.332;2023-05-07T07:13:50;13.90;1.00
20650;DHT22;10484;48.736;9.332;2023-05-07T07:16:16;14.00;1.00
20650;DHT22;10484;48.736;9.332;2023-05-07T07:18:42;14.10;1.00
20650;DHT22;10484;48.736;9.332;2023-05-07T07:21:07;14.10;1.00
20650;DHT22;10484;48.736;9.332;2023-05-07T07:23:33;14.20;1.00
20650;DHT22;10484;48.736;9.332;2023-05-07T07:25:59;14.30;1.00
20650;DHT22;10484;48.736;9.332;2023-05-07T07:28:24;14.40;1.00
20650;DHT22;10484;48.736;9.332;2023-05-07T07:30:50;14.50;1.00
20650;DHT22;10484;48.736;9.332;2023-05-07T07:33:15;14.50;1.00
20650;DHT22;10484;48.736;9.332;2023-05-07T07:35:41;14.60;1.00
20650;DHT22;10484;48.736;9.332;2023-05-07T07:38:07;14.70;1.00
20650;DHT22;10484;48.736;9.332;2023-05-07T07:40:35;14.80;1.00
20650;DHT22;10484;48.736;9.332;2023-05-07T07:43:00;14.90;1.00
20650;DHT22;10484;48.736;9.332;2023-05-07T07:45:26;15.10;1.00
20650;DHT22;10484;48.736;9.332;2023-05-07T07:47:52;15.20;1.00
20650;DHT22;10484;48.736;9.332;2023-05-07T07:50:18;15.30;1.00
20650;DHT22;10484;48.736;9.332;2023-05-07T07:52:44;15.40;1.00
20650;DHT22;10484;48.736;9.332;2023-05-07T07:55:10;15.50;1.00
20650;DHT22;10484;48.736;9.332;2023-05-07T07:57:35;15.60;1.00
20650;DHT22;10484;48.736;9.332;2023-05-07T08:00:02;15.70;1.00
20650;DHT22;10484;48.736;9.332;2023-05-07T08:02:27;15.80;1.00
20650;DHT22;10484;48.736;9.332;2023-05-07T08:04:53;15.90;1.00
20650;DHT22;10484;48.736;9.332;2023-05-07T08:07:18;15.90;1.00
20650;DHT22;10484;48.736;9.332;2023-05-07T08:09:46;16.10;1.00
20650;DHT22;10484;48.736;9.332;2023-05-07T08:12:12;16.10;1.00
20650;DHT22;10484;48.736;9.332;2023-05-07T08:14:38;16.30;1.00
20650;DHT22;10484;48.736;9.332;2023-05-07T08:17:03;16.40;1.00
20650;DHT22;10484;48.736;9.332;2023-05-07T08:19:29;16.50;1.00
20650;DHT22;10484;48.736;9.332;2023-05-07T08:21:54;16.70;1.00
20650;DHT22;10484;48.736;9.332;2023-05-07T08:24:20;16.80;1.00
20650;DHT22;10484;48.736;9.332;2023-05-07T08:26:46;16.90;1.00
20650;DHT22;10484;48.736;9.332;2023-05-07T08:29:12;17.10;1.00
20650;DHT22;10484;48.736;9.332;2023-05-07T08:31:37;17.30;1.00
20650;DHT22;10484;48.736;9.332;2023-05-07T08:34:04;17.40;1.00
20650;DHT22;10484;48.736;9.332;2023-05-07T08:36:30;17.50;1.00
20650;DHT22;10484;48.736;9.332;2023-05-07T08:38:56;17.60;1.00
20650;DHT22;10484;48.736;9.332;2023-05-07T08:41:21;17.70;1.00
20650;DHT22;10484;48.736;9.332;2023-05-07T08:43:49;17.80;1.00
20650;DHT22;10484;48.736;9.332;2023-05-07T08:46:20;18.00;1.00
20650;DHT22;10484;48.736;9.332;2023-05-07T08:48:50;18.10;1.00
20650;DHT22;10484;48.736;9.332;2023-05-07T08:51:18;18.20;1.00
20650;DHT22;10484;48.736;9.332;2023-05-07T08:53:46;18.30;1.00
20650;DHT22;10484;48.736;9.332;2023-05-07T08:56:14;18.40;1.00
20650;DHT22;10484;48.736;9.332;2023-05-07T08:58:41;18.50;1.00
20650;DHT22;10484;48.736;9.332;2023-05-07T09:01:09;18.60;1.00
20650;DHT22;10484;48.736;9.332;2023-05-07T09:03:36;18.70;1.00
20650;DHT22;10484;48.736;9.332;2023-05-07T09:06:02;18.80;1.00
20650;DHT22;10484;48.736;9.332;2023-05-07T09:08:28;18.90;1.00
20650;DHT22;10484;48.736;9.332;2023-05-07T09:10:54;19.10;1.00
20650;DHT22;10484;48.736;9.332;2023-05-07T09:13:20;19.30;1.00
20650;DHT22;10484;48.736;9.332;2023-05-07T09:15:45;19.40;1.00
20650;DHT22;10484;48.736;9.332;2023-05-07T09:18:12;19.50;1.00
20650;DHT22;10484;48.736;9.332;2023-05-07T09:20:38;19.60;1.00
20650;DHT22;10484;48.736;9.332;2023-05-07T09:23:06;19.70;1.00
20650;DHT22;10484;48.736;9.332;2023-05-07T09:25:33;19.90;1.00
20650;DHT22;10484;48.736;9.332;2023-05-07T09:28:00;20.00;1.00
20650;DHT22;10484;48.736;9.332;2023-05-07T09:30:30;20.10;1.00
20650;DHT22;10484;48.736;9.332;2023-05-07T09:32:57;20.20;1.00
20650;DHT22;10484;48.736;9.332;2023-05-07T09:35:23;20.30;1.00
20650;DHT22;10484;48.736;9.332;2023-05-07T09:37:59;20.50;1.00
20650;DHT22;10484;48.736;9.332;2023-05-07T09:40:27;20.60;1.00
20650;DHT22;10484;48.736;9.332;2023-05-07T09:42:53;20.70;1.00
20650;DHT22;10484;48.736;9.332;2023-05-07T09:45:28;20.80;1.00
20650;DHT22;10484;48.736;9.332;2023-05-07T09:47:56;20.90;1.00
20650;DHT22;10484;48.736;9.332;2023-05-07T09:50:27;21.00;1.00
20650;DHT22;10484;48.736;9.332;2023-05-07T09:52:55;21.10;1.00
20650;DHT22;10484;48.736;9.332;2023-05-07T09:55:21;21.20;1.00
20650;DHT22;10484;48.736;9.332;2023-05-07T09:57:51;21.30;1.00
20650;DHT22;10484;48.736;9.332;2023-05-07T10:00:19;21.40;1.00
20650;DHT22;10484;48.736;9.332;2023-05-07T10:02:50;21.50;1.00
20650;DHT22;10484;48.736;9.332;2023-05-07T10:05:18;21.50;1.00
20650;DHT22;10484;48.736;9.332;2023-05-07T10:07:45;21.60;1.00
20650;DHT22;10484;48.736;9.332;2023-05-07T10:10:11;21.70;1.00
20650;DHT22;10484;48.736;9.332;2023-05-07T10:12:37;21.80;1.00
20650;DHT22;10484;48.736;9.332;2023-05-07T10:15:06;21.90;1.00
20650;DHT22;10484;48.736;9.332;2023-05-07T10:17:38;22.00;1.00
20650;DHT22;10484;48.736;9.332;2023-05-07T10:20:05;22.10;1.00
20650;DHT22;10484;48.736;9.332;2023-05-07T10:22:37;22.20;1.00
20650;DHT22;10484;48.736;9.332;2023-05-07T10:25:04;22.30;1.00
20650;DHT22;10484;48.736;9.332;2023-05-07T10:27:31;22.40;1.00
20650;DHT22;10484;48.736;9.332;2023-05-07T10:30:12;22.50;1.00
20650;DHT22;10484;48.736;9.332;2023-05-07T10:32:43;22.60;1.00
20650;DHT22;10484;48.736;9.332;2023-05-07T10:35:19;22.70;1.00
20650;DHT22;10484;48.736;9.332;2023-05-07T10:37:46;22.80;1.00
20650;DHT22;10484;48.736;9.332;2023-05-07T10:40:12;22.90;1.00
20650;DHT22;10484;48.736;9.332;2023-05-07T10:42:38;23.00;1.00
20650;DHT22;10484;48.736;9.332;2023-05-07T10:45:15;23.10;1.00
20650;DHT22;10484;48.736;9.332;2023-05-07T10:48:13;23.20;1.00
20650;DHT22;10484;48.736;9.332;2023-05-07T10:50:41;23.30;1.00
20650;DHT22;10484;48.736;9.332;2023-05-07T10:55:46;23.60;1.00
20650;DHT22;10484;48.736;9.332;2023-05-07T11:00:47;23.70;1.00
20650;DHT22;10484;48.736;9.332;2023-05-07T11:03:14;23.80;1.00
20650;DHT22;10484;48.736;9.332;2023-05-07T11:05:41;23.90;1.00
20650;DHT22;10484;48.736;9.332;2023-05-07T11:08:07;24.00;1.00
20650;DHT22;10484;48.736;9.332;2023-05-07T11:10:52;24.10;1.00
20650;DHT22;10484;48.736;9.332;2023-05-07T11:16:21;24.20;1.00
20650;DHT22;10484;48.736;9.332;2023-05-07T11:18:53;24.30;1.00
20650;DHT22;10484;48.736;9.332;2023-05-07T11:24:01;24.40;1.00
20650;DHT22;10484;48.736;9.332;2023-05-07T11:26:28;24.40;1.00
20650;DHT22;10484;48.736;9.332;2023-05-07T11:28:54;24.50;1.00
20650;DHT22;10484;48.736;9.332;2023-05-07T11:31:25;24.60;1.00
20650;DHT22;10484;48.736;9.332;2023-05-07T11:33:52;24.60;1.00
20650;DHT22;10484;48.736;9.332;2023-05-07T11:36:18;24.70;1.00
20650;DHT22;10484;48.736;9.332;2023-05-07T11:38:46;24.80;1.00
20650;DHT22;10484;48.736;9.332;2023-05-07T11:41:11;24.90;1.00
20650;DHT22;10484;48.736;9.332;2023-05-07T11:43:37;25.00;1.00
20650;DHT22;10484;48.736;9.332;2023-05-07T11:46:08;25.00;1.00
20650;DHT22;10484;48.736;9.332;2023-05-07T11:48:34;25.00;1.00
20650;DHT22;10484;48.736;9.332;2023-05-07T11:51:01;25.10;1.00
20650;DHT22;10484;48.736;9.332;2023-05-07T11:53:36;25.00;1.00
20650;DHT22;10484;48.736;9.332;2023-05-07T11:56:07;24.90;1.00
20650;DHT22;10484;48.736;9.332;2023-05-07T11:58:32;24.90;1.00
20650;DHT22;10484;48.736;9.332;2023-05-07T12:00:58;25.00;1.00
20650;DHT22;10484;48.736;9.332;2023-05-07T12:03:24;25.00;1.00
20650;DHT22;10484;48.736;9.332;2023-05-07T12:05:49;25.00;1.00
20650;DHT22;10484;48.736;9.332;2023-05-07T12:08:19;25.00;1.00
20650;DHT22;10484;48.736;9.332;2023-05-07T12:10:46;25.10;1.00
20650;DHT22;10484;48.736;9.332;2023-05-07T12:13:19;25.20;1.00
20650;DHT22;10484;48.736;9.332;2023-05-07T12:15:45;25.20;1.00
20650;DHT22;10484;48.736;9.332;2023-05-07T12:18:11;25.20;1.00
20650;DHT22;10484;48.736;9.332;2023-05-07T12:20:39;25.20;1.00
20650;DHT22;10484;48.736;9.332;2023-05-07T12:23:04;25.20;1.00
20650;DHT22;10484;48.736;9.332;2023-05-07T12:25:32;25.20;1.00
20650;DHT22;10484;48.736;9.332;2023-05-07T12:27:57;25.10;1.00
20650;DHT22;10484;48.736;9.332;2023-05-07T12:30:25;25.10;1.00
20650;DHT22;10484;48.736;9.332;2023-05-07T12:32:55;25.20;1.00
20650;DHT22;10484;48.736;9.332;2023-05-07T12:35:32;25.20;1.00
20650;DHT22;10484;48.736;9.332;2023-05-07T12:38:01;25.20;1.00
20650;DHT22;10484;48.736;9.332;2023-05-07T12:40:43;25.10;1.00
20650;DHT22;10484;48.736;9.332;2023-05-07T12:43:27;24.90;1.00
20650;DHT22;10484;48.736;9.332;2023-05-07T12:45:57;24.90;1.00
20650;DHT22;10484;48.736;9.332;2023-05-07T12:48:23;24.90;1.00
20650;DHT22;10484;48.736;9.332;2023-05-07T12:50:53;24.80;1.00
20650;DHT22;10484;48.736;9.332;2023-05-07T12:53:22;24.80;1.00
20650;DHT22;10484;48.736;9.332;2023-05-07T12:55:51;24.70;1.00
20650;DHT22;10484;48.736;9.332;2023-05-07T12:58:23;24.80;1.00
20650;DHT22;10484;48.736;9.332;2023-05-07T13:00:50;24.80;1.00
20650;DHT22;10484;48.736;9.332;2023-05-07T13:03:34;24.70;1.00
20650;DHT22;10484;48.736;9.332;2023-05-07T13:06:02;24.60;1.00
20650;DHT22;10484;48.736;9.332;2023-05-07T13:08:38;24.50;1.00
20650;DHT22;10484;48.736;9.332;2023-05-07T13:11:11;24.40;1.00
20650;DHT22;10484;48.736;9.332;2023-05-07T13:13:38;24.30;1.00
20650;DHT22;10484;48.736;9.332;2023-05-07T13:16:07;24.10;1.00
20650;DHT22;10484;48.736;9.332;2023-05-07T13:18:34;23.80;1.00
20650;DHT22;10484;48.736;9.332;2023-05-07T13:21:00;23.50;1.00
20650;DHT22;10484;48.736;9.332;2023-05-07T13:23:27;23.00;1.00
20650;DHT22;10484;48.736;9.332;2023-05-07T13:25:53;22.70;1.00
20650;DHT22;10484;48.736;9.332;2023-05-07T13:28:25;22.60;1.00
20650;DHT22;10484;48.736;9.332;2023-05-07T13:30:52;22.50;1.00
20650;DHT22;10484;48.736;9.332;2023-05-07T13:33:18;22.30;1.00
20650;DHT22;10484;48.736;9.332;2023-05-07T13:35:44;22.10;1.00
20650;DHT22;10484;48.736;9.332;2023-05-07T13:38:09;22.00;1.00
20650;DHT22;10484;48.736;9.332;2023-05-07T13:40:35;21.90;1.00
20650;DHT22;10484;48.736;9.332;2023-05-07T13:43:01;21.80;1.00
20650;DHT22;10484;48.736;9.332;2023-05-07T13:45:29;21.90;1.00
20650;DHT22;10484;48.736;9.332;2023-05-07T13:47:56;21.80;1.00
20650;DHT22;10484;48.736;9.332;2023-05-07T13:50:22;21.70;1.00
20650;DHT22;10484;48.736;9.332;2023-05-07T13:52:48;21.60;1.00
20650;DHT22;10484;48.736;9.332;2023-05-07T13:55:20;21.60;1.00
20650;DHT22;10484;48.736;9.332;2023-05-07T13:57:46;21.50;1.00
20650;DHT22;10484;48.736;9.332;2023-05-07T14:00:13;21.30;1.00
20650;DHT22;10484;48.736;9.332;2023-05-07T14:02:39;21.10;1.00
20650;DHT22;10484;48.736;9.332;2023-05-07T14:05:05;21.10;1.00
20650;DHT22;10484;48.736;9.332;2023-05-07T14:07:30;21.20;1.00
20650;DHT22;10484;48.736;9.332;2023-05-07T14:09:57;21.20;1.00
20650;DHT22;10484;48.736;9.332;2023-05-07T14:12:23;21.10;1.00
20650;DHT22;10484;48.736;9.332;2023-05-07T14:14:48;21.00;1.00
20650;DHT22;10484;48.736;9.332;2023-05-07T14:17:18;20.80;1.00
20650;DHT22;10484;48.736;9.332;2023-05-07T14:19:44;20.70;1.00
20650;DHT22;10484;48.736;9.332;2023-05-07T14:22:10;20.60;1.00
20650;DHT22;10484;48.736;9.332;2023-05-07T14:24:35;20.50;1.00
20650;DHT22;10484;48.736;9.332;2023-05-07T14:27:01;20.50;1.00
20650;DHT22;10484;48.736;9.332;2023-05-07T14:29:27;20.50;1.00
20650;DHT22;10484;48.736;9.332;2023-05-07T14:31:53;20.40;1.00
20650;DHT22;10484;48.736;9.332;2023-05-07T14:34:18;20.20;1.00
20650;DHT22;10484;48.736;9.332;2023-05-07T14:36:44;20.10;1.00
20650;DHT22;10484;48.736;9.332;2023-05-07T14:39:10;20.00;1.00
20650;DHT22;10484;48.736;9.332;2023-05-07T14:41:35;20.00;1.00
20650;DHT22;10484;48.736;9.332;2023-05-07T14:44:01;20.00;1.00
20650;DHT22;10484;48.736;9.332;2023-05-07T14:46:29;20.00;1.00
20650;DHT22;10484;48.736;9.332;2023-05-07T14:48:55;20.10;1.00
20650;DHT22;10484;48.736;9.332;2023-05-07T14:51:21;20.10;1.00
20650;DHT22;10484;48.736;9.332;2023-05-07T14:53:47;20.10;1.00
20650;DHT22;10484;48.736;9.332;2023-05-07T14:56:12;20.10;1.00
20650;DHT22;10484;48.736;9.332;2023-05-07T14:58:38;20.10;1.00
20650;DHT22;10484;48.736;9.332;2023-05-07T15:01:04;20.00;1.00
20650;DHT22;10484;48.736;9.332;2023-05-07T15:03:29;19.90;1.00
20650;DHT22;10484;48.736;9.332;2023-05-07T15:05:55;19.70;1.00
20650;DHT22;10484;48.736;9.332;2023-05-07T15:08:21;19.50;1.00
20650;DHT22;10484;48.736;9.332;2023-05-07T15:10:46;19.40;1.00
20650;DHT22;10484;48.736;9.332;2023-05-07T15:13:12;19.50;1.00
20650;DHT22;10484;48.736;9.332;2023-05-07T15:15:42;19.50;1.00
20650;DHT22;10484;48.736;9.332;2023-05-07T15:18:09;19.50;1.00
20650;DHT22;10484;48.736;9.332;2023-05-07T15:20:35;19.40;1.00
20650;DHT22;10484;48.736;9.332;2023-05-07T15:23:01;19.30;1.00
20650;DHT22;10484;48.736;9.332;2023-05-07T15:25:26;19.20;1.00
20650;DHT22;10484;48.736;9.332;2023-05-07T15:27:52;19.20;1.00
20650;DHT22;10484;48.736;9.332;2023-05-07T15:30:18;19.30;1.00
20650;DHT22;10484;48.736;9.332;2023-05-07T15:32:45;19.30;1.00
20650;DHT22;10484;48.736;9.332;2023-05-07T15:35:11;19.30;1.00
20650;DHT22;10484;48.736;9.332;2023-05-07T15:37:36;19.30;1.00
20650;DHT22;10484;48.736;9.332;2023-05-07T15:40:02;19.40;1.00
20650;DHT22;10484;48.736;9.332;2023-05-07T15:42:30;19.40;1.00
20650;DHT22;10484;48.736;9.332;2023-05-07T15:44:55;19.30;1.00
20650;DHT22;10484;48.736;9.332;2023-05-07T15:47:21;19.20;1.00
20650;DHT22;10484;48.736;9.332;2023-05-07T15:49:47;19.20;1.00
20650;DHT22;10484;48.736;9.332;2023-05-07T15:52:12;19.20;1.00